Time;durP1;ratioP1;P1;durP2;ratioP2;P2;SDS_P1;SDS_P2;PMS_P1;PMS_P2;Temp;Humidity;BMP_temperature;BMP_pressure;BME280_temperature;BME280_humidity;BME280_pressure;Samples;Min_cycle;Max_cycle;Signal;HPM_P1;HPM_P2
2022/05/19 00:02:44;;;;;;;15.68;8.30;;;19.80;99.90;;;;;;4990709;28;20553;-78
2022/05/19 00:05:31;;;;;;;16.75;8.20;;;19.80;99.90;;;;;;4989275;28;20076;-78
2022/05/19 00:08:17;;;;;;;16.10;8.32;;;19.80;99.90;;;;;;5008989;28;20033;-79
2022/05/19 00:11:32;;;;;;;12.45;7.55;;;19.80;99.90;;;;;;4949816;28;20398;-79
2022/05/19 00:14:58;;;;;;;12.55;7.10;;;19.70;99.90;;;;;;4975378;28;20081;-78
2022/05/19 00:17:52;;;;;;;14.93;7.72;;;19.70;99.90;;;;;;5003074;28;20084;-77
2022/05/19 00:24:31;;;;;;;14.80;7.47;;;19.50;99.90;;;;;;5008398;28;20116;-78
2022/05/19 00:27:28;;;;;;;16.23;8.55;;;19.50;99.90;;;;;;4961467;28;20423;-78
2022/05/19 00:30:17;;;;;;;16.73;8.45;;;19.40;99.90;;;;;;5022014;28;20120;-77
2022/05/19 00:33:01;;;;;;;15.80;8.60;;;19.30;99.90;;;;;;5044034;28;20060;-78
2022/05/19 00:36:03;;;;;;;15.30;7.30;;;19.30;99.90;;;;;;5055661;28;20064;-78
2022/05/19 00:38:59;;;;;;;17.73;7.50;;;19.20;99.90;;;;;;5050640;28;20839;-78
2022/05/19 00:45:26;;;;;;;16.10;7.32;;;19.00;99.90;;;;;;5057201;28;20048;-78
2022/05/19 00:48:29;;;;;;;;;;;18.90;99.90;;;;;;5071823;28;20512;-80
2022/05/19 00:52:03;;;;;;;14.73;7.68;;;18.90;99.90;;;;;;5068202;28;19924;-78
2022/05/19 00:55:06;;;;;;;14.15;6.95;;;18.80;99.90;;;;;;5071010;28;20041;-77
2022/05/19 00:58:39;;;;;;;15.38;8.00;;;18.80;99.90;;;;;;5069736;28;20047;-77
2022/05/19 01:01:46;;;;;;;16.90;6.47;;;18.70;99.90;;;;;;5020323;28;20052;-78
2022/05/19 01:05:14;;;;;;;13.75;7.30;;;18.60;99.90;;;;;;5077724;28;20105;-78
2022/05/19 01:08:19;;;;;;;18.42;8.18;;;18.50;99.90;;;;;;5077120;28;20040;-77
2022/05/19 01:14:28;;;;;;;17.27;9.05;;;18.40;99.90;;;;;;5079524;28;20051;-78
2022/05/19 01:17:23;;;;;;;18.25;8.85;;;18.50;99.90;;;;;;5095389;28;20056;-77
2022/05/19 01:20:32;;;;;;;16.13;8.40;;;18.50;99.90;;;;;;5088953;28;20048;-78
2022/05/19 01:23:31;;;;;;;20.05;9.07;;;18.50;99.90;;;;;;5057720;28;20522;-78
2022/05/19 01:26:33;;;;;;;20.45;8.80;;;18.50;99.90;;;;;;5057853;28;20060;-77
2022/05/19 01:29:33;;;;;;;15.77;9.55;;;18.50;99.90;;;;;;5047781;28;20061;-83
2022/05/19 01:32:55;;;;;;;19.08;9.45;;;18.50;99.90;;;;;;5036105;28;20063;-78
2022/05/19 01:35:59;;;;;;;20.65;9.98;;;18.50;99.90;;;;;;5038298;28;20068;-77
2022/05/19 01:38:44;;;;;;;19.33;9.20;;;18.50;99.90;;;;;;5047403;28;20061;-78
2022/05/19 01:42:00;;;;;;;17.83;10.10;;;18.50;99.90;;;;;;5006185;28;20566;-78
2022/05/19 01:45:48;;;;;;;18.85;9.48;;;18.50;99.90;;;;;;5028226;28;20493;-78
2022/05/19 01:49:10;;;;;;;17.50;9.45;;;18.50;99.90;;;;;;5011534;28;20053;-77
2022/05/19 01:52:38;;;;;;;17.80;9.02;;;18.40;99.90;;;;;;4993428;28;20068;-77
2022/05/19 01:56:10;;;;;;;18.15;9.93;;;18.40;99.90;;;;;;5011430;28;20060;-84
2022/05/19 01:59:15;;;;;;;18.48;9.43;;;18.40;99.90;;;;;;4911426;29;20098;-77
2022/05/19 02:05:52;;;;;;;20.33;10.43;;;18.50;99.90;;;;;;4882220;29;20074;-81
2022/05/19 02:08:56;;;;;;;19.85;10.60;;;18.60;99.90;;;;;;4901037;29;20135;-77
2022/05/19 02:11:55;;;;;;;22.20;11.25;;;18.60;99.90;;;;;;4875797;29;20400;-77
2022/05/19 02:18:34;;;;;;;22.35;11.18;;;18.60;99.90;;;;;;5027341;28;20053;-78
2022/05/19 02:21:45;;;;;;;20.20;11.35;;;18.50;99.90;;;;;;5030048;28;20100;-77
2022/05/19 02:24:50;;;;;;;23.80;11.90;;;18.80;99.90;;;;;;5041145;28;20135;-79
2022/05/19 02:27:59;;;;;;;20.60;11.60;;;18.40;99.90;;;;;;5052310;28;20064;-77
2022/05/19 02:30:47;;;;;;;25.70;12.23;;;18.40;99.90;;;;;;5061079;28;20068;-78
2022/05/19 02:33:38;;;;;;;25.05;12.85;;;18.30;99.90;;;;;;5045924;28;20104;-79
2022/05/19 02:36:54;;;;;;;24.88;12.30;;;18.00;99.90;;;;;;5083652;28;20127;-78
2022/05/19 02:39:40;;;;;;;23.95;12.65;;;18.30;99.90;;;;;;5026056;28;20140;-78
2022/05/19 02:42:51;;;;;;;25.83;12.27;;;18.20;99.90;;;;;;5065793;28;20107;-77
2022/05/19 02:46:05;;;;;;;26.95;13.25;;;18.20;99.90;;;;;;5070350;28;20063;-77
2022/05/19 02:49:02;;;;;;;25.83;13.55;;;18.20;99.90;;;;;;5086877;28;20056;-77
2022/05/19 02:51:35;;;;;;;26.02;13.63;;;18.10;99.90;;;;;;5092939;28;20127;-79
2022/05/19 02:54:10;;;;;;;31.77;14.65;;;18.20;99.90;;;;;;5093716;28;20052;-79
2022/05/19 02:57:15;;;;;;;28.33;14.00;;;18.10;99.90;;;;;;5027174;28;20063;-77
2022/05/19 03:00:50;;;;;;;24.30;12.93;;;18.10;99.90;;;;;;5075724;28;20090;-79
2022/05/19 03:03:51;;;;;;;24.65;13.25;;;18.10;99.90;;;;;;5093150;28;20525;-77
2022/05/19 03:06:36;;;;;;;25.05;13.70;;;18.10;99.90;;;;;;5092919;28;20532;-80
2022/05/19 03:09:42;;;;;;;25.85;13.10;;;18.10;99.90;;;;;;5079587;28;20066;-77
2022/05/19 03:12:40;;;;;;;26.92;13.52;;;18.10;99.90;;;;;;5096114;28;20424;-77
2022/05/19 03:15:26;;;;;;;26.58;13.60;;;18.10;99.90;;;;;;5091605;28;20062;-77
2022/05/19 03:18:10;;;;;;;25.85;13.57;;;18.10;99.90;;;;;;5056679;28;20138;-77
2022/05/19 03:20:54;;;;;;;29.30;14.48;;;18.10;99.90;;;;;;5090421;28;20060;-77
2022/05/19 03:23:55;;;;;;;30.00;14.55;;;18.00;99.90;;;;;;5049481;28;20060;-77
2022/05/19 03:26:58;;;;;;;28.30;15.43;;;18.00;99.90;;;;;;5089510;28;20055;-77
2022/05/19 03:33:22;;;;;;;32.47;15.23;;;17.90;99.90;;;;;;5053299;28;20060;-77
2022/05/19 03:36:39;;;;;;;26.52;14.35;;;17.90;99.90;;;;;;5090046;28;20056;-78
2022/05/19 03:40:02;;;;;;;26.83;13.90;;;17.90;99.90;;;;;;5090849;28;20063;-77
2022/05/19 03:42:59;;;;;;;26.42;14.35;;;17.90;99.90;;;;;;5089184;28;20091;-78
2022/05/19 03:45:53;;;;;;;28.10;14.77;;;17.80;99.90;;;;;;5088978;28;20389;-77
2022/05/19 03:48:56;;;;;;;25.77;14.75;;;17.80;99.90;;;;;;5071426;28;20445;-78
2022/05/19 03:52:30;;;;;;;27.42;14.60;;;17.80;99.90;;;;;;5084575;28;20068;-77
2022/05/19 03:55:31;;;;;;;27.23;14.43;;;17.80;99.90;;;;;;5065105;28;20478;-78
2022/05/19 03:58:22;;;;;;;26.58;14.32;;;17.80;99.90;;;;;;5061437;28;20052;-79
2022/05/19 04:01:08;;;;;;;25.95;14.35;;;17.80;99.90;;;;;;5068027;28;20074;-77
2022/05/19 04:04:51;;;;;;;27.88;14.23;;;17.80;99.90;;;;;;5076910;28;20066;-77
2022/05/19 04:07:29;;;;;;;34.08;14.82;;;17.80;99.90;;;;;;5056961;28;20448;-77
2022/05/19 04:10:29;;;;;;;29.23;15.15;;;17.80;99.90;;;;;;5089519;28;20130;-77
2022/05/19 04:13:26;;;;;;;26.25;13.52;;;17.80;99.90;;;;;;5088706;28;20091;-77
2022/05/19 04:16:08;;;;;;;27.70;14.57;;;17.80;99.90;;;;;;5092560;28;20389;-78
2022/05/19 04:19:11;;;;;;;26.98;15.73;;;17.70;99.90;;;;;;5049197;28;20065;-77
2022/05/19 04:22:22;;;;;;;28.40;15.48;;;17.70;99.90;;;;;;4998634;28;20060;-78
2022/05/19 04:25:38;;;;;;;32.20;15.43;;;17.70;99.90;;;;;;5049758;28;20102;-78
2022/05/19 04:28:36;;;;;;;26.00;13.68;;;17.70;99.90;;;;;;5029498;28;20071;-77
2022/05/19 04:31:38;;;;;;;27.25;13.75;;;17.70;99.90;;;;;;5015447;28;20095;-78
2022/05/19 04:39:05;;;;;;;27.08;13.82;;;17.80;99.90;;;;;;5083342;28;20133;-78
2022/05/19 04:42:16;;;;;;;26.15;13.43;;;17.80;99.90;;;;;;5097761;27;20089;-78
2022/05/19 04:45:22;;;;;;;23.15;12.85;;;17.90;99.90;;;;;;5111166;27;20098;-78
2022/05/19 04:48:43;;;;;;;25.38;13.40;;;18.00;99.90;;;;;;5147489;27;20070;-78
2022/05/19 05:01:56;;;;;;;25.25;13.82;;;18.40;99.90;;;;;;5113561;27;20667;-78
2022/05/19 05:05:53;;;;;;;23.92;14.15;;;18.40;99.90;;;;;;5130944;27;20109;-81
2022/05/19 05:08:38;;;;;;;26.90;14.75;;;18.50;99.90;;;;;;5109506;28;20047;-78
2022/05/19 05:11:59;;;;;;;26.52;13.90;;;18.60;99.90;;;;;;5110291;28;20045;-77
2022/05/19 05:18:00;;;;;;;25.48;13.32;;;18.70;99.90;;;;;;5116879;27;20862;-78
2022/05/19 05:20:56;;;;;;;25.02;13.63;;;18.70;99.90;;;;;;5117033;27;20049;-78
2022/05/19 05:24:17;;;;;;;23.05;13.18;;;18.80;99.90;;;;;;5121178;27;20054;-78
2022/05/19 05:26:54;;;;;;;;;;;18.90;99.90;;;;;;5093390;27;20117;-79
2022/05/19 05:30:32;;;;;;;23.60;13.13;;;19.00;99.90;;;;;;5114585;27;19918;-83
2022/05/19 05:37:21;;;;;;;19.70;11.80;;;19.20;99.90;;;;;;5048591;28;20145;-78
2022/05/19 05:39:55;;;;;;;17.05;9.82;;;19.20;99.90;;;;;;5053147;28;20096;-79
2022/05/19 05:42:56;;;;;;;20.73;10.48;;;19.30;99.90;;;;;;5020259;28;20049;-79
2022/05/19 05:46:03;;;;;;;18.27;10.40;;;19.40;99.90;;;;;;5028973;28;20049;-79
2022/05/19 05:52:12;;;;;;;17.58;9.13;;;19.40;99.90;;;;;;5050720;28;20500;-79
2022/05/19 05:55:55;;;;;;;14.50;8.60;;;19.60;99.90;;;;;;4990383;28;20064;-80
2022/05/19 05:58:45;;;;;;;17.65;9.20;;;19.70;99.90;;;;;;5047453;28;20068;-79
2022/05/19 06:01:31;;;;;;;14.95;8.63;;;19.80;99.90;;;;;;5057729;28;20132;-79
2022/05/19 06:04:16;;;;;;;14.73;7.63;;;20.00;99.90;;;;;;5079197;28;20059;-79
2022/05/19 06:07:03;;;;;;;17.42;8.52;;;20.20;99.90;;;;;;5108640;27;20104;-79
2022/05/19 06:10:10;;;;;;;13.80;8.15;;;20.20;99.90;;;;;;5077976;27;20090;-79
2022/05/19 06:13:24;;;;;;;13.75;7.50;;;20.30;99.90;;;;;;5069050;27;20521;-78
2022/05/19 06:16:25;;;;;;;13.07;7.10;;;20.30;99.90;;;;;;5080703;27;20054;-77
2022/05/19 06:25:52;;;;;;;13.55;6.88;;;20.20;99.90;;;;;;5069816;28;20053;-79
2022/05/19 06:29:07;;;;;;;12.35;7.22;;;20.20;99.90;;;;;;5016845;28;20522;-79
2022/05/19 06:32:33;;;;;;;13.38;7.13;;;20.20;99.90;;;;;;5050734;28;20122;-78
2022/05/19 06:35:38;;;;;;;12.10;6.53;;;20.20;99.90;;;;;;4997941;28;20164;-80
2022/05/19 06:42:14;;;;;;;11.55;6.13;;;20.40;99.90;;;;;;5026878;28;20048;-79
2022/05/19 06:45:01;;;;;;;13.93;5.65;;;20.60;99.90;;;;;;5056800;28;20128;-79
2022/05/19 06:48:11;;;;;;;8.40;5.10;;;20.70;99.90;;;;;;5064874;28;20043;-83
2022/05/19 06:55:02;;;;;;;9.13;4.55;;;21.00;99.90;;;;;;4989892;28;20066;-79
2022/05/19 07:05:40;;;;;;;8.38;3.85;;;21.20;99.90;;;;;;4991230;28;20443;-79
2022/05/19 07:08:30;;;;;;;6.82;3.55;;;21.30;99.90;;;;;;5003604;28;20072;-79
2022/05/19 07:12:11;;;;;;;9.23;3.15;;;21.40;99.90;;;;;;5003681;28;20083;-79
2022/05/19 07:15:19;;;;;;;7.43;3.33;;;21.50;99.90;;;;;;4917727;28;20056;-79
2022/05/19 07:18:08;;;;;;;7.00;3.50;;;21.60;99.90;;;;;;5017800;28;20136;-85
2022/05/19 07:21:27;;;;;;;8.88;3.67;;;21.70;99.90;;;;;;4945427;29;20052;-80
2022/05/19 07:27:50;;;;;;;8.55;3.67;;;21.90;99.90;;;;;;5039505;28;20213;-80
2022/05/19 07:30:49;;;;;;;6.72;3.55;;;21.90;99.90;;;;;;5072918;28;21126;-80
2022/05/19 07:34:26;;;;;;;6.80;3.30;;;22.00;99.90;;;;;;5035044;28;20063;-81
2022/05/19 07:37:45;;;;;;;7.05;3.53;;;22.00;99.90;;;;;;5066460;28;20048;-80
2022/05/19 07:40:45;;;;;;;7.88;3.58;;;22.10;99.90;;;;;;5060188;28;20232;-79
2022/05/19 07:46:42;;;;;;;7.28;3.60;;;22.00;99.90;;;;;;5055327;28;20045;-79
2022/05/19 07:50:10;;;;;;;7.13;3.55;;;21.90;99.90;;;;;;5024846;28;20127;-80
2022/05/19 07:53:09;;;;;;;6.80;3.60;;;21.90;99.90;;;;;;5070038;28;20085;-76
2022/05/19 07:56:05;;;;;;;5.25;3.35;;;21.80;99.90;;;;;;5067019;28;20052;-80
2022/05/19 07:59:04;;;;;;;6.85;3.47;;;21.70;99.90;;;;;;5025771;28;20553;-79
2022/05/19 08:02:05;;;;;;;6.95;3.40;;;21.50;99.90;;;;;;5053990;28;20075;-81
2022/05/19 08:05:41;;;;;;;9.18;3.90;;;21.40;99.90;;;;;;5058757;28;20397;-79
2022/05/19 08:08:50;;;;;;;7.05;3.70;;;21.40;99.90;;;;;;5091673;28;20044;-80
2022/05/19 08:11:20;;;;;;;8.27;4.45;;;21.40;99.90;;;;;;5089689;28;20370;-77
2022/05/19 08:17:10;;;;;;;7.82;4.45;;;21.40;99.90;;;;;;5096427;28;20445;-78
2022/05/19 08:20:33;;;;;;;7.75;4.30;;;21.50;99.90;;;;;;5109999;28;20110;-78
2022/05/19 08:23:24;;;;;;;10.07;4.03;;;21.50;99.90;;;;;;5101618;28;20070;-77
2022/05/19 08:29:54;;;;;;;10.63;4.43;;;21.60;99.90;;;;;;5116379;27;20091;-78
2022/05/19 08:32:38;;;;;;;7.38;4.35;;;21.60;99.90;;;;;;5112936;27;20481;-74
2022/05/19 08:35:12;;;;;;;8.30;4.15;;;21.70;99.90;;;;;;5093350;28;20047;-75
2022/05/19 08:37:40;;;;;;;7.68;3.97;;;21.70;99.90;;;;;;5120596;27;20527;-80
2022/05/19 08:40:08;;;;;;;7.72;4.15;;;21.80;99.90;;;;;;5117493;27;20050;-76
2022/05/19 08:42:37;;;;;;;8.60;4.07;;;21.80;99.90;;;;;;5118505;27;20096;-76
2022/05/19 08:45:05;;;;;;;9.40;4.50;;;21.90;99.90;;;;;;5107944;28;20051;-75
2022/05/19 08:47:37;;;;;;;9.90;4.60;;;22.00;99.90;;;;;;5111655;28;20473;-75
2022/05/19 08:50:24;;;;;;;7.40;3.88;;;22.00;99.90;;;;;;5111320;28;20104;-75
2022/05/19 08:52:51;;;;;;;7.97;3.72;;;22.10;99.90;;;;;;5110808;28;20040;-76
2022/05/19 08:55:18;;;;;;;8.88;4.05;;;22.20;99.90;;;;;;5093307;28;20701;-75
2022/05/19 08:58:05;;;;;;;7.35;4.07;;;22.30;99.90;;;;;;5103845;28;20464;-73
2022/05/19 09:00:55;;;;;;;11.25;4.32;;;22.40;99.90;;;;;;5093618;28;20058;-73
2022/05/19 09:03:37;;;;;;;6.88;4.13;;;22.50;99.90;;;;;;5124965;27;20359;-73
2022/05/19 09:06:28;;;;;;;9.68;5.00;;;22.50;99.90;;;;;;5131115;27;20039;-74
2022/05/19 09:08:56;;;;;;;8.20;5.10;;;22.60;99.90;;;;;;5129161;27;20054;-73
2022/05/19 09:11:28;;;;;;;9.02;4.60;;;22.70;99.90;;;;;;5107920;28;20126;-73
2022/05/19 09:13:57;;;;;;;10.07;5.88;;;22.80;99.90;;;;;;5093116;28;20155;-73
2022/05/19 09:16:30;;;;;;;8.02;4.80;;;22.90;99.90;;;;;;5092947;28;20108;-73
2022/05/19 09:19:01;;;;;;;10.38;5.53;;;23.00;99.90;;;;;;5111474;28;20689;-73
2022/05/19 09:21:27;;;;;;;10.45;5.47;;;23.00;99.90;;;;;;5110610;28;20040;-73
2022/05/19 09:23:53;;;;;;;10.98;5.70;;;23.10;99.90;;;;;;5093298;28;20054;-73
2022/05/19 09:26:52;;;;;;;11.85;6.20;;;23.10;99.90;;;;;;5109801;28;20051;-73
2022/05/19 09:29:33;;;;;;;10.25;5.70;;;23.20;99.90;;;;;;5101998;27;20061;-73
2022/05/19 09:32:10;;;;;;;10.75;5.57;;;23.20;99.90;;;;;;5109174;28;20134;-73
2022/05/19 09:34:36;;;;;;;11.40;5.93;;;23.30;99.90;;;;;;5092914;28;20474;-73
2022/05/19 09:37:08;;;;;;;12.27;6.28;;;23.40;99.90;;;;;;5119851;27;20161;-78
2022/05/19 09:39:42;;;;;;;11.73;5.88;;;23.40;99.90;;;;;;5113258;28;20416;-77
2022/05/19 09:42:10;;;;;;;11.40;6.10;;;23.60;99.90;;;;;;5093045;27;20043;-77
2022/05/19 09:44:43;;;;;;;10.82;5.80;;;23.80;99.90;;;;;;5108294;28;20071;-77
2022/05/19 09:47:38;;;;;;;9.63;5.63;;;23.90;99.90;;;;;;5092357;28;20777;-77
2022/05/19 09:50:10;;;;;;;10.43;5.70;;;24.00;99.90;;;;;;5075333;28;20177;-78
2022/05/19 09:52:42;;;;;;;9.00;5.25;;;24.10;99.90;;;;;;5086931;28;20097;-78
2022/05/19 09:55:09;;;;;;;8.55;4.18;;;24.00;99.90;;;;;;5107989;28;20107;-78
2022/05/19 09:57:45;;;;;;;8.95;4.72;;;24.10;99.90;;;;;;5132405;27;20050;-78
2022/05/19 10:00:46;;;;;;;12.43;5.35;;;24.10;99.90;;;;;;5116018;27;20094;-77
2022/05/19 10:03:33;;;;;;;8.07;4.32;;;24.20;99.90;;;;;;5096523;27;20077;-78
2022/05/19 10:06:05;;;;;;;9.63;3.95;;;24.30;99.90;;;;;;5096292;27;20051;-80
2022/05/19 10:08:40;;;;;;;6.90;3.90;;;24.50;99.90;;;;;;5114913;27;20043;-80
2022/05/19 10:11:13;;;;;;;8.63;3.70;;;24.70;99.90;;;;;;5111252;27;20048;-81
2022/05/19 10:14:03;;;;;;;8.95;4.53;;;24.80;99.90;;;;;;5132667;27;20081;-80
2022/05/19 10:16:50;;;;;;;8.13;4.68;;;25.00;99.90;;;;;;5111514;27;20054;-80
2022/05/19 10:19:16;;;;;;;11.38;5.28;;;25.20;99.90;;;;;;5130983;27;20062;-80
2022/05/19 10:22:17;;;;;;;7.68;3.88;;;25.30;99.90;;;;;;5095435;27;20484;-80
2022/05/19 10:24:52;;;;;;;6.13;3.78;;;25.40;99.90;;;;;;5056221;27;20505;-81
2022/05/19 10:31:07;;;;;;;6.72;3.53;;;25.70;99.90;;;;;;5113449;27;20055;-81
2022/05/19 10:33:59;;;;;;;5.95;3.13;;;25.70;99.90;;;;;;5118225;27;20495;-80
2022/05/19 10:36:41;;;;;;;5.55;2.75;;;25.70;99.90;;;;;;5131888;27;20100;-80
2022/05/19 10:39:15;;;;;;;4.32;2.60;;;25.70;99.90;;;;;;5094646;27;20051;-82
2022/05/19 10:42:06;;;;;;;5.75;3.20;;;25.70;99.90;;;;;;5113565;27;20602;-81
2022/05/19 10:44:44;;;;;;;5.07;2.67;;;25.80;99.90;;;;;;5132609;27;20051;-80
2022/05/19 10:47:27;;;;;;;4.00;2.58;;;25.80;99.90;;;;;;5113130;27;20051;-82
2022/05/19 10:50:06;;;;;;;9.85;3.15;;;25.80;99.90;;;;;;5114019;27;20039;-80
2022/05/19 10:53:16;;;;;;;4.75;2.65;;;25.80;99.90;;;;;;5131899;27;20070;-80
2022/05/19 10:56:05;;;;;;;4.18;2.42;;;25.70;99.90;;;;;;5098346;27;20092;-80
2022/05/19 10:59:09;;;;;;;5.25;2.70;;;25.60;99.90;;;;;;5133066;27;20047;-80
2022/05/19 11:02:00;;;;;;;7.82;2.97;;;25.60;99.90;;;;;;5089375;27;20102;-80
2022/05/19 11:04:50;;;;;;;6.38;3.35;;;25.60;99.90;;;;;;5084534;28;20051;-80
2022/05/19 11:07:48;;;;;;;6.20;2.72;;;25.70;99.90;;;;;;5110149;28;20058;-80
2022/05/19 11:10:32;;;;;;;5.07;3.03;;;25.80;99.90;;;;;;5094631;28;20442;-80
2022/05/19 11:13:17;;;;;;;5.05;3.20;;;25.80;99.90;;;;;;5078090;28;20044;-80
2022/05/19 11:16:29;;;;;;;6.40;2.60;;;25.70;99.90;;;;;;5095859;28;20043;-80
2022/05/19 11:19:03;;;;;;;5.07;2.45;;;25.80;99.90;;;;;;5095702;28;20054;-79
2022/05/19 11:21:41;;;;;;;5.40;3.17;;;26.00;99.90;;;;;;5123492;27;20106;-80
2022/05/19 11:26:23;;;;;;;4.25;2.75;;;26.10;99.90;;;;;;5119074;27;20068;-80
2022/05/19 11:27:33;;;;;;;3.83;2.33;;;26.30;99.90;;;;;;5116124;27;20467;-80
2022/05/19 11:30:04;;;;;;;6.18;3.10;;;26.40;99.30;;;;;;5107262;28;20079;-79
2022/05/19 11:32:39;;;;;;;5.47;2.83;;;26.60;98.50;;;;;;5113230;27;20115;-79
2022/05/19 11:35:27;;;;;;;6.30;3.03;;;26.70;97.80;;;;;;5134575;27;20054;-80
2022/05/19 11:38:55;;;;;;;6.32;2.67;;;27.00;99.00;;;;;;5133010;27;20065;-79
2022/05/19 11:41:26;;;;;;;6.15;2.60;;;27.40;97.60;;;;;;5129224;27;20548;-80
2022/05/19 11:44:10;;;;;;;5.43;2.45;;;27.60;96.90;;;;;;5094424;28;20048;-78
2022/05/19 11:46:50;;;;;;;6.05;2.50;;;27.90;95.20;;;;;;5094038;28;20419;-80
2022/05/19 11:55:25;;;;;;;3.58;2.30;;;28.80;89.60;;;;;;5094424;28;20098;-80
2022/05/19 11:58:01;;;;;;;4.70;2.30;;;29.00;85.20;;;;;;5112195;27;20392;-80
2022/05/19 12:00:37;;;;;;;5.43;2.20;;;29.00;83.00;;;;;;5114776;27;20389;-80
2022/05/19 12:03:29;;;;;;;4.30;2.20;;;28.90;82.90;;;;;;5114967;27;20055;-80
2022/05/19 12:05:56;;;;;;;2.40;1.98;;;29.10;80.60;;;;;;5132883;27;20046;-80
2022/05/19 12:08:41;;;;;;;3.63;2.00;;;29.20;82.00;;;;;;5110619;28;20104;-80
2022/05/19 12:11:45;;;;;;;3.00;2.00;;;29.20;79.50;;;;;;5076597;28;20051;-80
2022/05/19 12:14:11;;;;;;;3.00;2.00;;;29.10;79.20;;;;;;5078811;28;20052;-80
2022/05/19 12:16:52;;;;;;;4.10;2.15;;;29.00;78.40;;;;;;5087610;27;20793;-79
2022/05/19 12:19:33;;;;;;;3.63;1.92;;;28.90;78.10;;;;;;5114299;27;20047;-80
2022/05/19 12:22:00;;;;;;;3.20;1.92;;;28.80;77.00;;;;;;5110242;28;20423;-80
2022/05/19 12:24:38;;;;;;;3.95;2.30;;;28.80;78.70;;;;;;5093612;28;20043;-80
2022/05/19 12:27:18;;;;;;;3.78;1.98;;;28.70;76.30;;;;;;5093168;28;20047;-80
2022/05/19 12:33:13;;;;;;;4.78;2.20;;;28.50;73.30;;;;;;5109700;27;20050;-83
2022/05/19 12:35:41;;;;;;;4.95;2.10;;;28.30;73.90;;;;;;5116796;27;20096;-75
2022/05/19 12:38:32;;;;;;;4.53;1.90;;;28.20;74.70;;;;;;5110086;27;20054;-80
2022/05/19 12:41:03;;;;;;;4.32;2.20;;;28.10;73.90;;;;;;5115345;27;20058;-81
2022/05/19 12:43:45;;;;;;;3.28;1.75;;;28.10;74.60;;;;;;5130934;27;20051;-74
2022/05/19 12:46:14;;;;;;;2.50;1.65;;;28.00;75.30;;;;;;5113335;27;20129;-76
2022/05/19 12:48:44;;;;;;;2.92;1.58;;;27.90;74.60;;;;;;5112296;27;20065;-76
2022/05/19 12:51:18;;;;;;;2.67;1.58;;;27.70;73.70;;;;;;5131207;27;20116;-77
2022/05/19 12:53:50;;;;;;;3.08;1.80;;;27.40;73.80;;;;;;5113543;27;20506;-76
2022/05/19 12:56:40;;;;;;;2.60;1.60;;;27.20;74.50;;;;;;5112951;27;20085;-77
2022/05/19 12:59:23;;;;;;;2.70;1.80;;;26.70;73.60;;;;;;5113721;27;20072;-76
2022/05/19 13:01:57;;;;;;;3.35;1.88;;;26.30;73.20;;;;;;5131779;27;20062;-76
2022/05/19 13:04:25;;;;;;;6.82;2.50;;;26.00;76.20;;;;;;5111051;27;20044;-76
2022/05/19 13:06:53;;;;;;;5.57;2.40;;;24.90;99.90;;;;;;5112821;27;20051;-75
2022/05/19 13:09:27;;;;;;;7.13;2.85;;;23.20;99.90;;;;;;5131436;27;20050;-75
2022/05/19 13:11:56;;;;;;;7.97;2.72;;;22.20;99.90;;;;;;5131110;27;20035;-75
2022/05/19 13:14:38;;;;;;;6.90;3.05;;;21.50;99.90;;;;;;5131135;27;20090;-75
2022/05/19 13:17:19;;;;;;;4.72;2.45;;;20.90;99.90;;;;;;5113766;27;20144;-75
2022/05/19 13:19:44;;;;;;;7.13;2.97;;;20.50;99.90;;;;;;5131481;27;20044;-75
2022/05/19 13:22:19;;;;;;;;;;;20.20;99.90;;;;;;5131134;27;20062;-74
2022/05/19 13:24:46;;;;;;;4.57;2.58;;;19.90;99.90;;;;;;5131374;27;19920;-74
2022/05/19 13:30:27;;;;;;;6.65;4.03;;;19.50;99.90;;;;;;5111449;27;20058;-74
2022/05/19 13:33:05;;;;;;;7.30;3.50;;;19.50;99.90;;;;;;5129394;27;20039;-74
2022/05/19 13:35:31;;;;;;;10.07;3.88;;;19.40;99.90;;;;;;5109549;27;20391;-75
2022/05/19 13:37:59;;;;;;;9.95;4.40;;;19.40;99.90;;;;;;5108406;28;20043;-76
2022/05/19 13:40:29;;;;;;;8.45;4.10;;;19.30;99.90;;;;;;5129826;28;20043;-77
2022/05/19 13:42:57;;;;;;;7.97;4.60;;;19.30;99.90;;;;;;5126545;28;20070;-77
2022/05/19 13:45:28;;;;;;;7.43;4.07;;;19.10;99.90;;;;;;5129800;28;20047;-78
2022/05/19 13:47:55;;;;;;;8.63;4.78;;;19.10;99.90;;;;;;5129829;28;20488;-78
2022/05/19 13:50:28;;;;;;;8.38;4.10;;;18.90;99.90;;;;;;5133814;27;20076;-79
2022/05/19 13:52:59;;;;;;;8.77;4.00;;;18.80;99.90;;;;;;5113739;27;20047;-78
2022/05/19 13:55:32;;;;;;;9.27;4.05;;;18.70;99.90;;;;;;5130032;27;20039;-77
2022/05/19 13:57:58;;;;;;;12.38;4.15;;;18.70;99.90;;;;;;5128326;28;20073;-77
2022/05/19 14:00:27;;;;;;;10.48;3.42;;;18.40;99.90;;;;;;5110099;28;20046;-78
2022/05/19 14:02:56;;;;;;;7.35;3.20;;;18.30;99.90;;;;;;5128775;28;20099;-78
2022/05/19 14:05:33;;;;;;;7.40;2.75;;;18.20;99.90;;;;;;5128731;28;20484;-77
2022/05/19 14:08:07;;;;;;;6.20;2.72;;;18.20;99.90;;;;;;5127765;28;20527;-76
2022/05/19 14:10:41;;;;;;;5.40;3.13;;;18.20;99.90;;;;;;5107644;28;20040;-76
2022/05/19 14:13:06;;;;;;;4.82;2.55;;;18.20;99.90;;;;;;5128377;28;20035;-76
2022/05/19 14:15:42;;;;;;;5.10;2.90;;;18.20;99.90;;;;;;5128028;28;20057;-76
2022/05/19 14:18:18;;;;;;;7.93;3.10;;;18.20;99.90;;;;;;5128830;28;20043;-76
2022/05/19 14:20:46;;;;;;;7.60;2.67;;;18.20;99.90;;;;;;5127970;28;20039;-76
2022/05/19 14:23:33;;;;;;;5.07;2.67;;;18.20;99.90;;;;;;5109426;28;20510;-75
2022/05/19 14:26:03;;;;;;;;;;;18.30;99.90;;;;;;5126605;28;20395;-76
2022/05/19 14:28:44;;;;;;;6.32;2.67;;;18.30;99.90;;;;;;5110050;27;19930;-75
2022/05/19 14:31:10;;;;;;;6.63;2.67;;;18.40;99.90;;;;;;5129707;27;20385;-75
2022/05/19 14:33:37;;;;;;;;;;;18.40;99.90;;;;;;5130326;27;20054;-77
2022/05/19 14:36:11;;;;;;;6.50;2.78;;;18.40;99.90;;;;;;5112363;28;19919;-76
2022/05/19 14:38:49;;;;;;;7.18;3.10;;;18.40;99.90;;;;;;5129485;27;20051;-75
2022/05/19 14:44:13;;;;;;;5.85;2.65;;;18.40;99.90;;;;;;5118659;27;20133;-75
2022/05/19 14:46:49;;;;;;;6.78;3.38;;;18.40;99.90;;;;;;5112244;27;20047;-75
2022/05/19 14:49:19;;;;;;;5.47;2.88;;;18.50;99.90;;;;;;5131576;27;20049;-75
2022/05/19 14:51:50;;;;;;;6.22;3.28;;;18.70;99.90;;;;;;5110231;27;20051;-75
2022/05/19 14:54:21;;;;;;;6.55;3.25;;;18.70;99.90;;;;;;5102460;27;20039;-75
2022/05/19 14:56:52;;;;;;;5.57;3.08;;;18.80;99.90;;;;;;5130300;27;20445;-75
2022/05/19 14:59:25;;;;;;;7.05;3.15;;;18.80;99.90;;;;;;5134009;27;20387;-75
2022/05/19 15:01:51;;;;;;;4.15;2.47;;;18.90;99.90;;;;;;5132675;27;20042;-75
2022/05/19 15:04:17;;;;;;;;;;;18.90;99.90;;;;;;5117537;27;20051;-75
2022/05/19 15:06:43;;;;;;;4.95;2.78;;;19.00;99.90;;;;;;5112785;27;19949;-75
2022/05/19 15:09:08;;;;;;;;;;;19.10;99.90;;;;;;5131733;27;20427;-75
2022/05/19 15:11:34;;;;;;;;;;;19.30;99.90;;;;;;5129051;27;19923;-75
2022/05/19 15:14:00;;;;;;;;;;;19.50;99.90;;;;;;5130323;27;19968;-76
2022/05/19 15:16:26;;;;;;;;;;;19.60;99.90;;;;;;5132536;27;20592;-75
2022/05/19 15:18:52;;;;;;;;;;;19.80;99.90;;;;;;5118169;27;20018;-75
2022/05/19 15:21:18;;;;;;;;;;;20.10;99.90;;;;;;5132164;27;20017;-76
2022/05/19 15:23:43;;;;;;;;;;;20.60;99.90;;;;;;5112258;27;20649;-76
2022/05/19 15:26:10;;;;;;;;;;;21.20;99.90;;;;;;5118275;27;19961;-76
2022/05/19 15:28:41;;;;;;;;;;;21.50;99.90;;;;;;5115083;27;19923;-76
2022/05/19 15:31:07;;;;;;;;;;;21.70;99.90;;;;;;5115941;27;19923;-76
2022/05/19 15:33:33;;;;;;;;;;;21.60;99.90;;;;;;5133944;27;19928;-76
2022/05/19 15:35:59;;;;;;;;;;;21.50;99.90;;;;;;5115760;27;19930;-76
2022/05/19 15:38:25;;;;;;;;;;;21.30;99.90;;;;;;5152207;27;20319;-76
2022/05/19 15:40:50;;;;;;;;;;;21.10;99.90;;;;;;5148981;27;19923;-76
2022/05/19 15:43:16;;;;;;;;;;;21.00;99.90;;;;;;5113288;27;20386;-76
2022/05/19 15:45:42;;;;;;;;;;;21.00;99.90;;;;;;5114895;27;19923;-76
2022/05/19 15:48:08;;;;;;;;;;;21.20;99.90;;;;;;5112428;28;19926;-77
2022/05/19 15:50:40;;;;;;;;;;;21.50;99.90;;;;;;5128220;27;20022;-77
2022/05/19 15:53:06;;;;;;;;;;;21.80;99.90;;;;;;5112700;27;19928;-77
2022/05/19 15:55:31;;;;;;;;;;;22.00;99.90;;;;;;5110393;27;19950;-76
2022/05/19 15:57:57;;;;;;;;;;;22.00;99.90;;;;;;5132176;27;19919;-76
2022/05/19 16:00:23;;;;;;;;;;;22.10;99.90;;;;;;5149026;27;19918;-76
2022/05/19 16:02:51;;;;;;;;;;;22.30;99.90;;;;;;5134954;27;19922;-76
2022/05/19 16:05:17;;;;;;;;;;;22.60;99.90;;;;;;5136161;27;19945;-77
2022/05/19 16:07:43;;;;;;;;;;;22.90;99.90;;;;;;5126951;27;19924;-76
2022/05/19 16:10:11;;;;;;;;;;;23.00;99.90;;;;;;5095153;28;19972;-76
2022/05/19 16:12:37;;;;;;;;;;;23.10;99.90;;;;;;5093576;28;19919;-77
2022/05/19 16:15:04;;;;;;;;;;;23.10;99.90;;;;;;5094256;28;19920;-77
2022/05/19 16:17:31;;;;;;;;;;;23.00;99.90;;;;;;5094551;28;19920;-76
2022/05/19 16:19:57;;;;;;;;;;;23.10;99.90;;;;;;5094559;28;20065;-77